• Join FlightAware (Why Join?)
  • Login
  • US Flag 
07:54AM EST


 

Airport Tracker/Info


-or-


 

Live Flight TrackerFlight Track Log ✈ N13553 ✈ 13-May-2013 ✈ KGSO - KEWR

Flight Track Log - Related Links

Times and Time Zones

All times are in EDT time to prevent confusion due to time zone crossing. See the N13553 flight status page for this flight to view local times or setup timezone preferences in your user account.

Time Position Orientation Groundspeed Altitude Reporting Facility
EDT Latitude Longitude Course Direction KTS MPH feet Rate Location/Type
06:16AM 36.0264 -79.9017 43° Northeast 234 269 5,100  Level Washington Center
06:16AM 36.0778 -79.8581 34° Northeast 249 287 6,900 1,740 Climbing Washington Center
06:17AM 36.2155 -79.6619 52° Northeast  Level FlightAware Approximate
06:18AM 36.2654 -79.5613 61° Northeast  Level FlightAware Approximate
06:18AM 36.1428 -79.7975 37° Northeast 264 304 8,700  Level Washington Center
06:18AM 36.1958 -79.7075 54° Northeast 298 343 10,800 1,560 Climbing Washington Center
06:19AM 36.3182 -79.4646 47° Northeast  Level FlightAware Approximate
06:20AM 36.3802 -79.3729 58° Northeast  Level FlightAware Approximate
06:20AM 36.2447 -79.6225 54° Northeast 319 367 11,800  Level Washington Center
06:20AM 36.3089 -79.5100 55° Northeast 350 403 13,200 1,320 Climbing Washington Center
06:21AM 36.4432 -79.2829 43° Northeast  Level FlightAware Approximate
06:21AM 36.3642 -79.4119 55° Northeast 372 428 14,500  Level Washington Center
06:23AM 36.4303 -79.3069 52° Northeast 377 434 15,600 1,080 Climbing Washington Center
06:24AM 36.5103 -79.2125 43° Northeast 383 441 16,700 1,140 Climbing Washington Center
06:25AM 36.5925 -79.1128 44° Northeast 393 452 17,900 1,200 Climbing Washington Center
06:25AM 36.6836 -78.9978 45° Northeast 409 471 19,100 1,380 Climbing Washington Center
06:27AM 36.7617 -78.8922 47° Northeast 414 476 20,700 1,500 Climbing Washington Center
06:28AM 36.8478 -78.7947 42° Northeast 414 476 22,200 1,380 Climbing Washington Center
06:29AM 36.9331 -78.7256 33° Northeast 409 471 23,600 1,200 Climbing Washington Center
06:30AM 37.0289 -78.6436 34° Northeast 414 476 24,600 1,020 Climbing Washington Center
06:31AM 37.1269 -78.5589 35° Northeast 420 483 25,700 660 Climbing Washington Center
06:32AM 37.2072 -78.4394 50° Northeast 426 490 26,000 120 Climbing Washington Center
06:33AM 37.2833 -78.2961 56° Northeast 439 505 26,000 300 Level Washington Center
06:34AM 37.3531 -78.1653 56° Northeast 444 511 26,700 600 Climbing Washington Center
06:35AM 37.4142 -78.0444 57° Northeast 444 511 27,200 660 Climbing Washington Center
06:36AM 37.4856 -77.9081 57° Northeast 459 528 28,000 780 Climbing Washington Center
06:37AM 37.5733 -77.7822 49° Northeast 464 534 28,800 780 Climbing Washington Center
06:38AM 37.6814 -77.6883 35° Northeast 464 534 29,600 780 Climbing Washington Center
06:39AM 37.7917 -77.5889 35° Northeast 469 540 30,400 660 Climbing Washington Center
06:40AM 37.9017 -77.4892 36° Northeast 481 554 31,000 300 Climbing Washington Center
06:40AM 38.0158 -77.3839 36° Northeast 493 567 31,000  Level Washington Center
06:42AM 38.1469 -77.2683 35° Northeast 499 574 31,000  Level Washington Center
06:42AM 38.2547 -77.1650 37° Northeast 525 604 31,000  Level Washington Center
06:44AM 38.3833 -77.0483 35° Northeast 525 604 31,000  Level Washington Center
06:44AM 38.4992 -76.9394 36° Northeast 520 598 31,000  Level Washington Center
06:46AM 38.6172 -76.8325 35° Northeast 520 598 31,000  Level Washington Center
06:47AM 38.7289 -76.7172 39° Northeast 520 598 31,000  Level Washington Center
06:48AM 38.8383 -76.5936 41° Northeast 520 598 31,000  Level Washington Center
06:49AM 38.9456 -76.4697 42° Northeast 515 593 31,000 -60 Level Washington Center
06:50AM 39.0444 -76.3506 43° Northeast 522 601 30,900 -1,020 Descending Washington Center
06:51AM 39.1556 -76.2258 41° Northeast 522 601 29,000 -1,920 Descending Washington Center
06:52AM 39.2667 -76.0983 42° Northeast 528 608 27,100 -1,020 Descending Washington Center
06:53AM 39.3669 -75.9781 43° Northeast 511 588 27,000 -240 Descending Washington Center
06:54AM 39.4717 -75.8550 42° Northeast 500 575 26,700 -1,020 Descending Washington Center
06:55AM 39.5739 -75.7342 42° Northeast 500 575 25,000 -1,860 Descending Washington Center
06:56AM 39.6719 -75.6158 43° Northeast 495 570 23,000 -2,340 Descending Washington Center
06:57AM 39.7719 -75.4997 42° Northeast 484 557 20,400 -2,460 Descending Washington Center
06:58AM 39.8572 -75.3942 44° Northeast 455 524 18,200 -2,280 Descending Washington Center
06:59AM 39.9403 -75.2911 44° Northeast 424 488 15,900 -2,520 Descending Washington Center
06:59AM 40.0294 -75.1822 43° Northeast 407 468 13,300 -2,460 Descending Washington Center
07:01AM 40.1061 -75.0897 43° Northeast 387 445 11,100 -1,380 Descending Washington Center
07:02AM 40.1767 -75.0050 43° Northeast 367 422 10,500 -1,200 Descending Washington Center
07:02AM 40.2333 -74.9333 44° Northeast 308 354 9,000 -1,440 Descending New York TRACON
07:03AM 40.2833 -74.8667 45° Northeast 291 335 8,000 -540 Descending New York TRACON
07:04AM 40.3333 -74.8000 45° Northeast 290 334 8,000 -540 Level New York TRACON
07:05AM 40.3833 -74.7333 45° Northeast 284 327 7,100 -1,080 Descending New York TRACON
07:06AM 40.4333 -74.6667 45° Northeast 273 314 6,000 -600 Descending New York TRACON
07:07AM 40.5167 -74.6500 North 264 304 6,000  Level New York TRACON
07:08AM 40.5833 -74.6333 11° North 264 304 6,000  Level New York TRACON
07:09AM 40.6500 -74.6167 11° North 262 302 6,000  Level New York TRACON
07:10AM 40.7167 -74.5833 21° North 256 295 6,000 -420 Level New York TRACON
07:11AM 40.7667 -74.5333 37° Northeast 269 310 5,200 -540 Descending New York TRACON
07:12AM 40.8167 -74.4667 45° Northeast 265 305 5,000 -120 Descending New York TRACON
07:13AM 40.8667 -74.4167 37° Northeast 270 311 5,000  Level New York TRACON
07:14AM 40.9333 -74.3500 37° Northeast 275 316 5,000 -360 Level New York TRACON
07:15AM 40.9500 -74.2500 78° East 288 331 4,300 -540 Descending New York TRACON
07:16AM 40.9167 -74.1667 118° Southeast 273 314 4,000 -180 Descending New York TRACON
07:17AM 40.8833 -74.0833 118° Southeast 255 293 4,000 -300 Level New York TRACON
07:18AM 40.8333 -74.0667 166° South 188 216 3,400 -900 Descending New York TRACON
07:19AM 40.8000 -74.1000 217° Southwest 181 208 2,400 -1,140 Descending New York TRACON